Time;durP1;ratioP1;P1;durP2;ratioP2;P2;SDS_P1;SDS_P2;PMS_P1;PMS_P2;Temp;Humidity;BMP_temperature;BMP_pressure;BME280_temperature;BME280_humidity;BME280_pressure;Samples;Min_cycle;Max_cycle;Signal;HPM_P1;HPM_P2
2023/02/09 00:01:12;;;;;;;21.83;8.37;;;1.80;99.90;;;;;;4148756;28;20212;-92
2023/02/09 00:03:13;;;;;;;19.53;8.10;;;1.90;99.90;;;;;;4148889;28;20183;-92
2023/02/09 00:05:14;;;;;;;21.03;9.80;;;1.80;99.90;;;;;;4148733;28;20176;-92
2023/02/09 00:07:15;;;;;;;19.23;9.60;;;1.90;99.90;;;;;;4132526;28;20169;-92
2023/02/09 00:09:16;;;;;;;17.60;8.13;;;2.00;99.90;;;;;;4148665;28;20188;-93
2023/02/09 00:13:21;;;;;;;19.80;8.87;;;2.00;99.90;;;;;;4148842;28;20227;-91
2023/02/09 00:13:46;;;;;;;17.80;8.53;;;1.90;99.90;;;;;;4165066;28;20270;-93
2023/02/09 00:15:48;;;;;;;16.67;7.93;;;2.00;99.90;;;;;;4148803;28;20208;-92
2023/02/09 00:17:49;;;;;;;21.63;8.30;;;2.00;99.90;;;;;;4148965;28;20589;-93
2023/02/09 00:19:53;;;;;;;19.07;8.10;;;2.00;99.90;;;;;;4147816;28;20197;-93
2023/02/09 00:21:54;;;;;;;20.93;8.90;;;2.00;99.90;;;;;;4132470;28;20173;-92
2023/02/09 00:23:54;;;;;;;14.33;7.93;;;1.80;99.90;;;;;;4132481;28;20177;-92
2023/02/09 00:25:59;;;;;;;17.13;8.03;;;1.90;99.90;;;;;;4148648;28;20176;-92
2023/02/09 00:28:00;;;;;;;18.00;7.93;;;1.80;99.90;;;;;;4132470;28;20172;-92
2023/02/09 00:30:01;;;;;;;14.87;7.30;;;1.70;99.90;;;;;;4132199;28;20193;-93
2023/02/09 00:32:02;;;;;;;14.70;7.13;;;1.60;99.90;;;;;;4148818;28;20684;-92
2023/02/09 00:34:03;;;;;;;17.00;7.87;;;1.40;99.90;;;;;;4132269;28;20177;-92
2023/02/09 00:36:05;;;;;;;18.60;8.07;;;1.40;99.90;;;;;;4132066;28;20221;-93
2023/02/09 00:38:06;;;;;;;17.13;7.70;;;1.30;99.90;;;;;;4148293;28;20177;-93
2023/02/09 00:40:08;;;;;;;17.03;7.20;;;1.30;99.90;;;;;;4132122;28;20645;-94
2023/02/09 00:42:10;;;;;;;14.90;7.10;;;1.30;99.90;;;;;;4148424;28;20628;-94
2023/02/09 00:44:11;;;;;;;14.67;6.83;;;1.30;99.90;;;;;;4132135;28;20546;-93
2023/02/09 00:46:12;;;;;;;13.97;6.93;;;1.30;99.90;;;;;;4132293;28;20516;-93
2023/02/09 00:48:12;;;;;;;12.47;6.50;;;1.40;99.90;;;;;;4148414;28;20291;-94
2023/02/09 00:50:13;;;;;;;15.10;6.53;;;1.40;99.90;;;;;;4132150;28;20201;-93
2023/02/09 00:52:14;;;;;;;17.53;6.50;;;1.40;99.90;;;;;;4131999;28;20181;-91
2023/02/09 00:54:18;;;;;;;15.77;6.53;;;1.50;99.90;;;;;;4132143;28;20185;-94
2023/02/09 00:56:19;;;;;;;15.13;6.17;;;1.50;99.90;;;;;;4148095;28;20231;-94
2023/02/09 00:58:20;;;;;;;14.77;6.67;;;1.40;99.90;;;;;;4131978;28;20185;-94
2023/02/09 01:00:20;;;;;;;12.30;5.47;;;1.50;99.90;;;;;;4131988;28;20180;-91
2023/02/09 01:02:21;;;;;;;15.97;5.73;;;1.50;99.90;;;;;;4131886;28;20173;-93
2023/02/09 01:04:22;;;;;;;10.40;5.20;;;1.60;99.90;;;;;;4132041;28;20176;-92
2023/02/09 01:06:23;;;;;;;13.90;4.97;;;1.60;99.90;;;;;;4132073;28;20193;-95
2023/02/09 01:08:23;;;;;;;7.90;4.87;;;1.70;99.90;;;;;;4131884;28;20558;-92
2023/02/09 01:10:24;;;;;;;10.37;4.43;;;1.90;99.90;;;;;;4132079;28;20237;-92
2023/02/09 01:12:25;;;;;;;10.40;5.27;;;1.90;99.90;;;;;;4148278;28;20181;-92
2023/02/09 01:14:26;;;;;;;11.60;5.37;;;1.90;99.90;;;;;;4131900;28;20650;-92
2023/02/09 01:16:29;;;;;;;13.60;4.93;;;2.00;99.90;;;;;;4148044;28;20213;-92
2023/02/09 01:18:29;;;;;;;14.57;4.93;;;2.00;99.90;;;;;;4132213;28;20228;-92
2023/02/09 01:20:30;;;;;;;11.13;4.83;;;1.90;99.90;;;;;;4131960;28;20170;-92
2023/02/09 01:22:31;;;;;;;8.57;4.63;;;1.90;99.90;;;;;;4148258;28;20173;-92
2023/02/09 01:24:32;;;;;;;11.37;5.23;;;1.80;99.90;;;;;;4148159;28;20173;-92
2023/02/09 01:26:33;;;;;;;10.33;5.13;;;1.90;99.90;;;;;;4148121;28;20208;-93
2023/02/09 01:28:34;;;;;;;10.70;5.30;;;2.00;99.90;;;;;;4131743;28;20224;-92
2023/02/09 01:30:36;;;;;;;11.63;5.40;;;2.00;99.90;;;;;;4149311;28;20185;-93
2023/02/09 01:32:37;;;;;;;13.13;5.80;;;2.00;99.90;;;;;;4134490;28;20186;-93
2023/02/09 01:34:38;;;;;;;11.90;5.17;;;2.00;99.90;;;;;;4151019;28;20622;-92
2023/02/09 01:36:39;;;;;;;12.03;5.33;;;2.10;99.90;;;;;;4134638;28;20364;-93
2023/02/09 01:38:39;;;;;;;10.57;5.20;;;2.10;99.90;;;;;;4150790;28;20201;-94
2023/02/09 01:40:48;;;;;;;11.57;5.80;;;2.10;99.90;;;;;;4134548;28;20174;-94
2023/02/09 01:42:49;;;;;;;11.73;5.40;;;2.10;99.90;;;;;;4134438;28;20177;-92
2023/02/09 01:45:06;;;;;;;13.50;5.03;;;2.10;99.90;;;;;;4134612;28;20269;-93
2023/02/09 01:47:18;;;;;;;11.47;5.17;;;2.00;99.90;;;;;;4134468;28;20516;-92
2023/02/09 01:49:25;;;;;;;9.77;4.43;;;2.00;99.90;;;;;;4150670;28;20189;-93
2023/02/09 01:51:27;;;;;;;9.33;5.03;;;1.90;99.90;;;;;;4150749;28;20177;-92
2023/02/09 01:53:27;;;;;;;10.97;5.10;;;2.00;99.90;;;;;;4150716;28;20269;-92
2023/02/09 01:55:32;;;;;;;10.73;5.27;;;2.00;99.90;;;;;;4150469;28;20578;-91
2023/02/09 01:57:37;;;;;;;11.80;5.13;;;1.90;99.90;;;;;;4150490;28;20169;-93
2023/02/09 01:59:42;;;;;;;12.07;5.27;;;2.00;99.90;;;;;;4150372;28;20292;-93
2023/02/09 02:01:43;;;;;;;12.33;4.97;;;1.90;99.90;;;;;;4150532;28;20169;-93
2023/02/09 02:03:44;;;;;;;10.93;4.80;;;2.10;99.90;;;;;;4150376;28;20788;-94
2023/02/09 02:05:49;;;;;;;11.37;5.43;;;1.90;99.90;;;;;;4134139;28;20310;-92
2023/02/09 02:08:03;;;;;;;10.23;4.80;;;1.90;99.90;;;;;;4150654;28;20183;-93
2023/02/09 02:10:04;;;;;;;12.00;5.33;;;1.80;99.90;;;;;;4150387;28;20515;-96
2023/02/09 02:12:05;;;;;;;11.23;5.63;;;1.60;99.90;;;;;;4134368;28;20188;-93
2023/02/09 02:14:06;;;;;;;11.77;5.20;;;1.40;99.90;;;;;;4134120;28;20174;-92
2023/02/09 02:16:27;;;;;;;10.87;5.03;;;1.40;99.90;;;;;;4150280;28;20271;-91
2023/02/09 02:19:13;;;;;;;11.47;5.03;;;1.40;99.90;;;;;;4133724;28;20197;-92
2023/02/09 02:21:32;;;;;;;10.23;4.50;;;1.40;99.90;;;;;;4150028;28;20172;-91
2023/02/09 02:23:50;;;;;;;9.90;4.50;;;1.50;99.90;;;;;;4133940;28;20173;-91
2023/02/09 02:25:57;;;;;;;11.13;5.60;;;1.50;99.90;;;;;;4133902;28;20213;-93
2023/02/09 02:28:36;;;;;;;10.03;5.03;;;1.50;99.90;;;;;;4133795;28;20301;-92
2023/02/09 02:30:46;;;;;;;9.60;5.10;;;1.50;99.90;;;;;;4133689;28;20224;-92
2023/02/09 02:32:59;;;;;;;12.10;5.43;;;1.50;99.90;;;;;;4134146;28;20204;-92
2023/02/09 02:35:08;;;;;;;11.40;4.90;;;1.50;99.90;;;;;;4150076;28;20200;-91
2023/02/09 02:37:30;;;;;;;11.13;5.10;;;1.60;99.90;;;;;;4150260;28;20181;-93
2023/02/09 02:39:40;;;;;;;10.30;4.93;;;1.60;99.90;;;;;;4150102;28;20197;-92
2023/02/09 02:44:14;;;;;;;13.57;6.60;;;1.60;99.90;;;;;;4149798;28;20694;-93
2023/02/09 02:46:26;;;;;;;13.63;6.40;;;1.60;99.90;;;;;;4149759;28;20206;-91
2023/02/09 02:48:30;;;;;;;15.90;6.27;;;1.70;99.90;;;;;;4133706;28;20212;-91
2023/02/09 02:50:33;;;;;;;14.50;6.37;;;1.70;99.90;;;;;;4133604;28;20165;-93
2023/02/09 02:52:34;;;;;;;14.60;5.97;;;1.80;99.90;;;;;;4150312;28;20203;-92
2023/02/09 02:54:41;;;;;;;12.50;5.80;;;1.70;99.90;;;;;;4149610;28;20267;-91
2023/02/09 02:56:46;;;;;;;13.40;5.00;;;1.60;99.90;;;;;;4133445;28;20236;-93
2023/02/09 02:58:49;;;;;;;11.60;5.53;;;1.50;99.90;;;;;;4149410;28;20283;-92
2023/02/09 03:00:55;;;;;;;10.73;5.83;;;1.40;99.90;;;;;;4149664;28;20176;-92
2023/02/09 03:03:02;;;;;;;13.13;6.27;;;1.50;99.90;;;;;;4149596;28;20177;-94
2023/02/09 03:05:05;;;;;;;17.07;6.50;;;1.50;99.90;;;;;;4133496;28;20173;-92
2023/02/09 03:07:07;;;;;;;11.40;5.60;;;1.50;99.90;;;;;;4149491;28;20173;-93
2023/02/09 03:09:07;;;;;;;12.60;5.43;;;1.50;99.90;;;;;;4149540;28;20193;-95
2023/02/09 03:11:10;;;;;;;14.70;6.30;;;1.50;99.90;;;;;;4149518;28;20183;-93
2023/02/09 03:13:41;;;;;;;11.97;5.67;;;1.50;99.90;;;;;;4149316;28;20177;-93
2023/02/09 03:15:51;;;;;;;12.40;5.77;;;1.50;99.90;;;;;;4133086;28;20209;-91
2023/02/09 03:18:13;;;;;;;14.03;5.93;;;1.60;99.90;;;;;;4149445;28;20688;-92
2023/02/09 03:20:40;;;;;;;17.10;6.13;;;1.80;99.90;;;;;;4133171;28;20209;-90
2023/02/09 03:22:49;;;;;;;12.00;6.00;;;2.00;99.90;;;;;;4149355;28;20181;-92
2023/02/09 03:25:14;;;;;;;14.43;5.93;;;2.30;99.90;;;;;;4149402;28;20271;-91
2023/02/09 03:27:23;;;;;;;15.87;6.17;;;2.00;99.90;;;;;;4149315;28;20181;-91
2023/02/09 03:29:25;;;;;;;11.53;5.97;;;1.70;99.90;;;;;;4148812;28;20736;-93
2023/02/09 03:31:27;;;;;;;12.87;6.43;;;1.40;99.90;;;;;;4133011;28;20692;-91
2023/02/09 03:33:31;;;;;;;12.97;5.47;;;1.20;99.90;;;;;;4149258;28;20176;-92
2023/02/09 03:35:40;;;;;;;12.73;6.33;;;1.00;99.90;;;;;;4149061;28;20654;-92
2023/02/09 03:37:40;;;;;;;12.33;5.70;;;1.20;99.90;;;;;;4148988;28;20164;-92
2023/02/09 03:39:41;;;;;;;12.50;5.47;;;1.10;99.90;;;;;;4148957;28;20290;-92
2023/02/09 03:41:42;;;;;;;14.33;6.43;;;0.80;99.90;;;;;;4149027;28;20173;-93
2023/02/09 03:46:02;;;;;;;12.77;5.87;;;0.90;99.90;;;;;;4165336;28;20207;-92
2023/02/09 03:48:04;;;;;;;14.17;5.90;;;0.80;99.90;;;;;;4132798;28;20174;-94
2023/02/09 03:50:06;;;;;;;12.50;6.10;;;0.80;99.90;;;;;;4132915;28;20185;-91
2023/02/09 03:52:09;;;;;;;12.57;5.80;;;0.80;99.90;;;;;;4132896;28;20212;-92
2023/02/09 03:54:10;;;;;;;13.47;6.47;;;0.90;99.90;;;;;;4148886;28;20275;-93
2023/02/09 03:56:11;;;;;;;12.90;5.80;;;0.90;99.90;;;;;;4132458;28;20721;-92
2023/02/09 03:58:11;;;;;;;14.43;6.50;;;0.90;99.90;;;;;;4132435;28;20165;-94
2023/02/09 04:00:13;;;;;;;15.33;6.27;;;0.80;99.90;;;;;;4148706;28;20177;-95
2023/02/09 04:02:15;;;;;;;13.63;6.13;;;0.70;99.90;;;;;;4132568;28;20197;-93
2023/02/09 04:04:16;;;;;;;18.00;5.73;;;0.70;99.90;;;;;;4148832;28;20192;-91
2023/02/09 04:06:17;;;;;;;12.00;5.80;;;0.90;99.90;;;;;;4148619;28;20199;-92
2023/02/09 04:08:18;;;;;;;12.53;6.27;;;1.10;99.90;;;;;;4132202;28;20202;-91
2023/02/09 04:10:18;;;;;;;10.80;5.77;;;1.10;99.90;;;;;;4132521;28;20169;-94
2023/02/09 04:12:19;;;;;;;12.90;6.20;;;0.90;99.90;;;;;;4148345;28;20173;-92
2023/02/09 04:14:20;;;;;;;11.73;5.97;;;0.90;99.90;;;;;;4148570;28;20276;-92
2023/02/09 04:16:21;;;;;;;15.90;6.73;;;0.90;99.90;;;;;;4148408;28;20266;-92
2023/02/09 04:18:21;;;;;;;17.27;6.90;;;0.90;99.90;;;;;;4132200;28;20574;-91
2023/02/09 04:20:22;;;;;;;19.20;6.90;;;0.90;99.90;;;;;;4148473;28;20334;-91
2023/02/09 04:22:23;;;;;;;14.40;6.20;;;1.20;99.90;;;;;;4132171;28;20693;-93
2023/02/09 04:24:24;;;;;;;13.97;6.60;;;1.40;99.90;;;;;;4132276;28;20312;-91
2023/02/09 04:26:24;;;;;;;11.73;6.03;;;1.50;99.90;;;;;;4132130;28;20177;-91
2023/02/09 04:28:25;;;;;;;13.40;6.87;;;1.60;99.90;;;;;;4132094;28;20201;-91
2023/02/09 04:30:26;;;;;;;15.90;6.20;;;1.50;99.90;;;;;;4148345;28;20251;-92
2023/02/09 04:32:26;;;;;;;18.20;6.70;;;1.20;99.90;;;;;;4131997;28;20220;-93
2023/02/09 04:34:27;;;;;;;15.07;6.83;;;1.20;99.90;;;;;;4132121;28;20274;-92
2023/02/09 04:36:28;;;;;;;14.97;6.63;;;1.30;99.90;;;;;;4148207;28;20234;-91
2023/02/09 04:38:29;;;;;;;14.83;6.60;;;1.00;99.90;;;;;;4132213;28;20228;-91
2023/02/09 04:40:30;;;;;;;17.10;6.90;;;0.60;99.90;;;;;;4148453;28;20177;-91
2023/02/09 04:42:33;;;;;;;15.03;7.00;;;0.50;99.90;;;;;;4132213;28;20166;-92
2023/02/09 04:44:34;;;;;;;15.07;6.17;;;0.50;99.90;;;;;;4148208;28;20272;-90
2023/02/09 04:46:35;;;;;;;12.47;6.30;;;0.70;99.90;;;;;;4148312;28;20180;-91
2023/02/09 04:48:35;;;;;;;12.80;6.23;;;1.00;99.90;;;;;;4148051;28;20184;-91
2023/02/09 04:50:36;;;;;;;15.87;6.97;;;0.90;99.90;;;;;;4132079;28;20213;-92
2023/02/09 04:52:37;;;;;;;12.43;5.93;;;0.70;99.90;;;;;;4132185;28;20266;-91
2023/02/09 04:54:37;;;;;;;14.00;6.70;;;0.70;99.90;;;;;;4148255;28;20181;-92
2023/02/09 04:56:38;;;;;;;15.30;6.40;;;0.80;99.90;;;;;;4147917;28;20217;-92
2023/02/09 05:00:58;;;;;;;17.67;7.13;;;0.50;99.90;;;;;;4148221;28;20180;-93
2023/02/09 05:02:59;;;;;;;17.77;6.73;;;0.70;99.90;;;;;;4132239;28;20169;-94
2023/02/09 05:04:59;;;;;;;15.03;7.37;;;0.60;99.90;;;;;;4148347;28;20200;-93
2023/02/09 05:07:01;;;;;;;14.07;6.80;;;0.60;99.90;;;;;;4135331;28;20174;-92
2023/02/09 05:09:02;;;;;;;14.30;6.63;;;0.60;99.90;;;;;;4151552;28;20201;-91
2023/02/09 05:11:02;;;;;;;15.90;7.20;;;0.60;99.90;;;;;;4151496;28;20188;-93
2023/02/09 05:13:03;;;;;;;16.67;7.47;;;0.70;99.90;;;;;;4151199;28;20177;-93
2023/02/09 05:15:04;;;;;;;16.10;6.93;;;0.80;99.90;;;;;;4134908;28;20178;-93
2023/02/09 05:17:05;;;;;;;14.77;6.80;;;0.70;99.90;;;;;;4150806;28;20550;-91
2023/02/09 05:19:05;;;;;;;15.87;6.83;;;0.80;99.90;;;;;;4151108;28;20231;-91
2023/02/09 05:21:06;;;;;;;14.70;7.07;;;0.80;99.90;;;;;;4134906;28;20181;-92
2023/02/09 05:23:07;;;;;;;15.27;7.43;;;0.80;99.90;;;;;;4151210;28;20283;-90
2023/02/09 05:25:08;;;;;;;15.00;7.03;;;0.80;99.90;;;;;;4134986;28;20539;-91
2023/02/09 05:27:08;;;;;;;17.13;7.20;;;0.80;99.90;;;;;;4134850;28;20166;-91
2023/02/09 05:29:09;;;;;;;17.03;7.27;;;0.80;99.90;;;;;;4150847;28;20185;-90
2023/02/09 05:31:10;;;;;;;13.40;6.97;;;0.90;99.90;;;;;;4150842;28;20184;-93
2023/02/09 05:33:10;;;;;;;15.60;7.07;;;1.00;99.90;;;;;;4151314;28;20165;-91
2023/02/09 05:35:11;;;;;;;18.30;7.10;;;1.10;99.90;;;;;;4150979;28;20227;-91
2023/02/09 05:37:12;;;;;;;20.07;7.37;;;1.10;99.90;;;;;;4151036;28;20173;-93
2023/02/09 05:39:13;;;;;;;19.17;6.93;;;0.80;99.90;;;;;;4150835;28;20193;-93
2023/02/09 05:43:33;;;;;;;16.80;7.07;;;0.80;99.90;;;;;;4150817;28;20181;-91
2023/02/09 05:45:34;;;;;;;15.70;7.20;;;0.90;99.90;;;;;;4134804;28;20252;-91
2023/02/09 05:47:34;;;;;;;19.27;8.00;;;0.80;99.90;;;;;;4134705;28;20734;-92
2023/02/09 05:49:35;;;;;;;17.23;7.77;;;0.70;99.90;;;;;;4134564;28;20220;-91
2023/02/09 05:51:36;;;;;;;15.47;7.20;;;1.00;99.90;;;;;;4150801;28;20173;-92
2023/02/09 05:53:36;;;;;;;14.97;7.47;;;0.80;99.90;;;;;;4134742;28;20178;-91
2023/02/09 05:55:37;;;;;;;20.77;8.00;;;0.90;99.90;;;;;;4134506;28;20220;-91
2023/02/09 05:57:38;;;;;;;20.47;7.30;;;1.10;99.90;;;;;;4134406;28;20170;-91
2023/02/09 05:59:39;;;;;;;14.90;7.40;;;1.10;99.90;;;;;;4134257;28;20196;-91
2023/02/09 06:01:40;;;;;;;14.03;6.13;;;0.80;99.90;;;;;;4134504;28;20170;-91
2023/02/09 06:03:40;;;;;;;16.83;7.87;;;0.60;99.90;;;;;;4134458;28;20224;-92
2023/02/09 06:05:44;;;;;;;21.43;7.93;;;0.60;99.90;;;;;;4134555;28;20173;-95
2023/02/09 06:07:44;;;;;;;15.87;7.83;;;0.50;99.90;;;;;;4150481;28;20231;-91
2023/02/09 06:09:45;;;;;;;19.77;7.63;;;0.50;99.90;;;;;;4150405;28;20205;-92
2023/02/09 06:11:46;;;;;;;17.50;8.23;;;0.50;99.90;;;;;;4134095;28;20174;-92
2023/02/09 06:13:48;;;;;;;16.90;7.83;;;0.60;99.90;;;;;;4150268;28;20192;-91
2023/02/09 06:15:48;;;;;;;15.70;7.20;;;0.40;99.90;;;;;;4134177;28;20217;-91
2023/02/09 06:17:49;;;;;;;17.43;7.83;;;0.40;99.90;;;;;;4149251;28;20169;-92
2023/02/09 06:19:50;;;;;;;15.37;8.07;;;0.40;99.90;;;;;;4150438;28;20196;-91
2023/02/09 06:21:50;;;;;;;18.93;7.63;;;0.50;99.90;;;;;;4150431;28;20187;-91
2023/02/09 06:23:51;;;;;;;19.50;7.63;;;0.50;99.90;;;;;;4134120;28;20249;-94
2023/02/09 06:25:52;;;;;;;18.13;8.00;;;0.50;99.90;;;;;;4134194;28;20177;-91
2023/02/09 06:27:52;;;;;;;18.27;8.13;;;0.60;99.90;;;;;;4133886;28;20274;-93
2023/02/09 06:29:53;;;;;;;16.67;7.97;;;0.70;99.90;;;;;;4133802;28;20653;-91
2023/02/09 06:31:54;;;;;;;24.00;8.27;;;0.70;99.90;;;;;;4133815;28;20185;-91
2023/02/09 06:33:55;;;;;;;17.60;8.00;;;0.80;99.90;;;;;;4150050;28;20192;-91
2023/02/09 06:35:55;;;;;;;15.70;8.37;;;0.60;99.90;;;;;;4150027;28;20212;-91
2023/02/09 06:37:57;;;;;;;16.60;8.40;;;0.40;99.90;;;;;;4150089;28;20180;-92
2023/02/09 06:39:58;;;;;;;22.57;8.77;;;0.40;99.90;;;;;;4133854;28;20235;-92
2023/02/09 06:41:59;;;;;;;23.67;9.60;;;0.50;99.90;;;;;;4133947;28;20678;-91
2023/02/09 06:43:59;;;;;;;21.03;9.60;;;0.40;99.90;;;;;;4133657;28;20223;-91
2023/02/09 06:46:07;;;;;;;23.13;9.57;;;0.40;99.90;;;;;;4149789;28;20200;-92
2023/02/09 06:48:09;;;;;;;17.73;7.63;;;0.40;99.90;;;;;;4149732;28;20180;-91
2023/02/09 06:50:11;;;;;;;16.03;8.00;;;0.60;99.90;;;;;;4149971;28;20173;-92
2023/02/09 06:52:12;;;;;;;20.60;8.73;;;0.70;99.90;;;;;;4149780;28;20180;-91
2023/02/09 06:54:13;;;;;;;17.60;7.63;;;0.60;99.90;;;;;;4149688;28;20180;-91
2023/02/09 06:56:13;;;;;;;18.23;8.10;;;0.40;99.90;;;;;;4133570;28;20209;-90
2023/02/09 06:58:14;;;;;;;19.77;8.37;;;0.40;99.90;;;;;;4149628;28;20193;-91
2023/02/09 07:00:15;;;;;;;22.93;8.53;;;0.30;99.90;;;;;;4133441;28;20174;-91
2023/02/09 07:02:16;;;;;;;22.50;7.87;;;0.30;99.90;;;;;;4149759;28;20223;-92
2023/02/09 07:04:17;;;;;;;17.57;7.80;;;0.30;99.90;;;;;;4133580;28;20273;-92
2023/02/09 07:06:20;;;;;;;18.57;8.50;;;0.30;99.90;;;;;;4149585;28;20177;-91
2023/02/09 07:08:20;;;;;;;24.20;8.70;;;0.30;99.90;;;;;;4133280;28;20193;-91
2023/02/09 07:10:21;;;;;;;25.17;8.80;;;0.30;99.90;;;;;;4133444;28;20627;-92
2023/02/09 07:12:22;;;;;;;20.47;9.33;;;0.40;99.90;;;;;;4133246;28;20256;-92
2023/02/09 07:14:22;;;;;;;285.50;145.60;;;0.50;99.90;;;;;;4149413;28;20657;-92
2023/02/09 07:16:23;;;;;;;358.27;182.73;;;0.60;99.90;;;;;;4149200;28;20208;-93
2023/02/09 07:18:24;;;;;;;130.97;64.07;;;0.40;99.90;;;;;;4133135;28;20190;-91
2023/02/09 07:20:25;;;;;;;157.97;70.60;;;0.40;99.90;;;;;;4133407;28;20182;-91
2023/02/09 07:22:26;;;;;;;30.07;10.23;;;0.50;99.90;;;;;;4149746;28;20204;-91
2023/02/09 07:24:26;;;;;;;18.00;7.97;;;0.70;99.90;;;;;;4149454;28;20245;-94
2023/02/09 07:26:27;;;;;;;21.67;8.77;;;0.80;99.90;;;;;;4149375;28;20172;-91
2023/02/09 07:28:28;;;;;;;18.07;8.13;;;1.00;99.90;;;;;;4132450;28;20674;-92
2023/02/09 07:30:28;;;;;;;22.67;8.90;;;1.10;99.90;;;;;;4149011;28;20649;-92
2023/02/09 07:32:29;;;;;;;22.57;8.90;;;1.20;99.90;;;;;;4132879;28;20169;-92
2023/02/09 07:34:30;;;;;;;23.37;9.07;;;1.00;99.90;;;;;;4133040;28;20216;-91
2023/02/09 07:36:31;;;;;;;24.90;9.10;;;1.00;99.90;;;;;;4132864;28;20213;-90
2023/02/09 07:38:32;;;;;;;20.50;9.30;;;1.10;99.90;;;;;;4133030;28;20209;-92
2023/02/09 07:40:33;;;;;;;24.50;9.50;;;1.20;99.90;;;;;;4149462;28;20533;-91
2023/02/09 07:42:33;;;;;;;21.03;8.47;;;1.00;99.90;;;;;;4149295;28;20169;-92
2023/02/09 07:44:37;;;;;;;19.50;8.67;;;1.20;99.90;;;;;;4132906;28;20181;-92
2023/02/09 07:46:37;;;;;;;22.87;9.43;;;1.20;99.90;;;;;;4132939;28;20180;-91
2023/02/09 07:48:38;;;;;;;19.83;9.13;;;1.20;99.90;;;;;;4132760;28;20197;-92
2023/02/09 07:50:39;;;;;;;17.73;8.60;;;1.40;99.90;;;;;;4132960;28;20169;-91
2023/02/09 07:52:40;;;;;;;21.07;8.63;;;1.50;99.90;;;;;;4132551;28;20169;-92
2023/02/09 07:54:40;;;;;;;15.33;7.90;;;1.50;99.90;;;;;;4148880;28;20165;-92
2023/02/09 07:56:41;;;;;;;17.13;8.00;;;1.50;99.90;;;;;;4132523;28;20220;-92
2023/02/09 07:58:42;;;;;;;15.53;7.50;;;1.60;99.90;;;;;;4132143;28;20193;-91
2023/02/09 08:00:44;;;;;;;15.10;7.70;;;1.60;99.90;;;;;;4132655;28;20182;-93
2023/02/09 08:02:45;;;;;;;19.30;8.20;;;1.60;99.90;;;;;;4132593;28;20181;-92
2023/02/09 08:04:46;;;;;;;24.60;7.80;;;1.70;99.90;;;;;;4132536;28;20293;-93
2023/02/09 08:06:48;;;;;;;19.63;7.27;;;2.00;99.90;;;;;;4132638;28;20197;-92
2023/02/09 08:08:50;;;;;;;19.60;7.80;;;2.00;99.90;;;;;;4148462;28;20621;-92
2023/02/09 08:10:53;;;;;;;14.63;7.87;;;2.00;99.90;;;;;;4132810;28;20178;-93
2023/02/09 08:12:59;;;;;;;18.37;7.73;;;2.10;99.90;;;;;;4148681;28;20261;-91
2023/02/09 08:15:00;;;;;;;18.40;7.70;;;2.20;99.90;;;;;;4148539;28;20180;-93
2023/02/09 08:17:26;;;;;;;15.73;7.00;;;2.40;99.90;;;;;;4148480;28;20549;-91
2023/02/09 08:19:27;;;;;;;17.77;7.17;;;2.60;99.90;;;;;;4132181;28;20201;-92
2023/02/09 08:21:32;;;;;;;16.67;6.97;;;2.60;99.90;;;;;;4132101;28;20177;-93
2023/02/09 08:23:34;;;;;;;15.67;8.13;;;2.30;99.90;;;;;;4148813;28;20173;-92
2023/02/09 08:25:35;;;;;;;16.00;7.67;;;2.40;99.90;;;;;;4148664;28;20697;-93
2023/02/09 08:27:38;;;;;;;19.80;8.80;;;2.60;99.90;;;;;;4132215;28;20179;-91
2023/02/09 08:29:39;;;;;;;16.73;8.13;;;2.80;99.90;;;;;;4148221;28;20299;-92
2023/02/09 08:31:39;;;;;;;14.83;7.67;;;2.80;99.90;;;;;;4148365;28;20175;-94
2023/02/09 08:33:40;;;;;;;17.47;7.77;;;3.10;99.90;;;;;;4148332;28;20235;-92
2023/02/09 08:35:42;;;;;;;18.10;7.80;;;3.00;99.90;;;;;;4132150;28;20213;-92
2023/02/09 08:37:43;;;;;;;17.90;7.60;;;2.70;99.90;;;;;;4148494;28;20181;-92
2023/02/09 08:39:44;;;;;;;15.83;7.77;;;3.10;99.90;;;;;;4147621;28;20189;-92
2023/02/09 08:41:44;;;;;;;17.80;8.03;;;3.30;99.90;;;;;;4131954;28;20174;-92
2023/02/09 08:43:50;;;;;;;18.33;7.97;;;3.30;99.90;;;;;;4148232;28;20177;-92
2023/02/09 08:45:51;;;;;;;17.73;8.10;;;3.30;99.90;;;;;;4132090;28;20188;-92
2023/02/09 08:47:51;;;;;;;15.20;7.47;;;3.50;99.90;;;;;;4132242;28;20678;-93
2023/02/09 08:49:52;;;;;;;13.17;6.67;;;3.70;99.90;;;;;;4132217;28;20220;-91
2023/02/09 08:51:53;;;;;;;18.60;7.93;;;3.70;99.90;;;;;;4148339;28;20300;-93
2023/02/09 08:53:56;;;;;;;13.43;7.10;;;3.30;99.90;;;;;;4148395;28;20263;-92
2023/02/09 12:02:56;;;;;;;24.60;11.65;;;7.50;99.90;;;;;;4731592;23;20234;31
2023/02/09 17:51:46;;;;;;;32.07;18.30;;;7.10;99.90;;;;;;4099223;29;20190;-94
2023/02/09 18:00:37;;;;;;;33.03;18.10;;;7.30;99.90;;;;;;4059578;29;20192;-95
2023/02/09 18:03:41;;;;;;;34.83;18.20;;;7.00;99.90;;;;;;4068473;29;20260;-94
2023/02/09 18:06:32;;;;;;;37.17;18.20;;;7.00;99.90;;;;;;4078495;29;20191;-94
2023/02/09 18:38:53;;;;;;;;;;;;;;;;;;;;;
2023/02/09 18:41:45;;;;;;;32.47;16.83;;;6.60;99.90;;;;;;4035534;29;20195;-95
2023/02/09 18:44:27;;;;;;;37.23;17.83;;;6.40;99.90;;;;;;4110924;28;20198;-94
2023/02/09 18:59:45;;;;;;;37.77;18.10;;;6.60;99.90;;;;;;4099171;29;20262;-94
2023/02/09 19:02:34;;;;;;;;;;;;;;;;;;;;;
2023/02/09 19:04:43;;;;;;;36.17;18.20;;;6.70;99.90;;;;;;4094723;29;20179;-94
2023/02/09 19:07:35;;;;;;;;;;;;;;;;;;;;;
2023/02/09 19:09:49;;;;;;;31.67;18.30;;;6.80;99.90;;;;;;4099742;29;20258;-94
2023/02/09 19:12:13;;;;;;;36.00;18.57;;;6.60;99.90;;;;;;4097979;29;20187;-93
2023/02/09 19:14:54;;;;;;;39.17;19.43;;;6.60;99.90;;;;;;4099001;29;20747;-94
2023/02/09 19:17:40;;;;;;;;;;;;;;;;;;;;;
2023/02/09 19:26:33;;;;;;;38.73;18.23;;;6.40;99.90;;;;;;4097729;29;20187;-94
2023/02/09 19:29:04;;;;;;;34.17;18.00;;;6.40;99.90;;;;;;4094270;29;20206;-94
2023/02/09 19:31:48;;;;;;;;;;;;;;;;;;;;;
2023/02/09 19:34:17;;;;;;;31.03;18.50;;;6.70;99.90;;;;;;4096885;29;20227;-93
2023/02/09 19:37:21;;;;;;;;;;;;;;;;;;;;;
2023/02/09 19:42:07;;;;;;;35.17;18.23;;;6.60;99.90;;;;;;4701333;23;20234;-93
2023/02/09 19:44:41;;;;;;;36.77;19.10;;;6.60;99.90;;;;;;4127165;28;20193;-94
2023/02/09 19:47:06;;;;;;;35.50;18.30;;;6.70;99.90;;;;;;4110982;28;20186;-94
2023/02/09 19:49:38;;;;;;;36.93;19.57;;;6.70;99.90;;;;;;4127453;28;20273;-94
2023/02/09 19:52:45;;;;;;;34.80;18.43;;;6.40;99.90;;;;;;4118791;28;20651;-95
2023/02/09 19:55:26;;;;;;;39.23;18.93;;;6.40;99.90;;;;;;4129004;28;20197;-95
2023/02/09 19:57:51;;;;;;;38.83;19.30;;;6.40;99.90;;;;;;4128578;28;20245;-95
2023/02/09 20:00:14;;;;;;;31.50;18.90;;;6.50;99.90;;;;;;4113430;28;20190;-94
2023/02/09 20:03:35;;;;;;;41.17;18.77;;;6.40;99.90;;;;;;4095923;28;20597;-93
2023/02/09 20:09:15;;;;;;;34.03;18.53;;;6.50;99.90;;;;;;4796190;23;20233;-95
2023/02/09 20:11:37;;;;;;;34.00;18.60;;;6.50;99.90;;;;;;4125001;28;20166;-95
2023/02/09 20:14:19;;;;;;;34.60;19.23;;;6.40;99.90;;;;;;4124018;28;20182;-94
2023/02/09 20:17:13;;;;;;;34.80;18.43;;;6.60;99.90;;;;;;4140953;28;20201;-94
2023/02/09 20:20:26;;;;;;;;;;;;;;;;;;;;;
2023/02/09 20:23:24;;;;;;;34.93;20.00;;;6.60;99.90;;;;;;4068355;29;20212;-95
2023/02/09 20:29:15;;;;;;;35.60;19.80;;;6.60;99.90;;;;;;4061811;29;20205;-94
2023/02/09 20:32:01;;;;;;;35.53;19.03;;;6.60;99.90;;;;;;4111657;28;20169;-96
2023/02/09 20:34:23;;;;;;;30.90;18.70;;;6.70;99.90;;;;;;4110563;28;20182;-94
2023/02/09 20:37:42;;;;;;;36.83;19.33;;;6.60;99.90;;;;;;4110861;28;20293;-94
2023/02/09 20:40:12;;;;;;;50.23;21.40;;;6.70;99.90;;;;;;4207044;23;20214;-94
2023/02/09 20:48:53;;;;;;;34.40;18.63;;;6.80;99.90;;;;;;4137744;28;20293;-94
2023/02/09 20:51:24;;;;;;;;;;;;;;;;;;;;;
2023/02/09 20:54:10;;;;;;;35.63;18.50;;;6.60;99.90;;;;;;4114216;28;20167;-94
2023/02/09 21:03:25;;;;;;;35.63;20.47;;;6.50;99.90;;;;;;4110332;28;20204;-93
2023/02/09 21:06:36;;;;;;;;;;;;;;;;;;;;;
2023/02/09 21:09:28;;;;;;;;;;;;;;;;;;;;;
2023/02/09 21:12:47;;;;;;;;;;;;;;;;;;;;;
2023/02/09 21:18:55;;;;;;;37.40;20.30;;;6.50;99.90;;;;;;4090619;28;20222;-93
2023/02/09 21:22:08;;;;;;;36.93;20.20;;;6.60;99.90;;;;;;4111493;28;20245;-94
2023/02/09 21:24:39;;;;;;;42.60;20.97;;;6.70;99.90;;;;;;4080381;29;20196;-95
2023/02/09 21:31:46;;;;;;;;;;;;;;;;;;;;;
2023/02/09 21:40:42;;;;;;;38.63;21.80;;;6.70;99.90;;;;;;4427321;23;20237;-95
2023/02/09 21:43:10;;;;;;;40.60;21.60;;;6.60;99.90;;;;;;4125952;28;20190;-93
2023/02/09 21:45:43;;;;;;;37.17;21.43;;;6.70;99.90;;;;;;4088767;28;20199;-96
2023/02/09 21:47:51;;;;;;;39.57;21.90;;;6.80;99.90;;;;;;4109845;28;20190;-96
2023/02/09 21:49:58;;;;;;;39.67;20.97;;;7.00;99.90;;;;;;4128775;28;20201;-95
2023/02/09 21:52:26;;;;;;;38.73;21.47;;;6.80;99.90;;;;;;4097402;28;20207;-95
2023/02/09 21:54:39;;;;;;;41.77;22.10;;;6.60;99.90;;;;;;4111594;28;20168;-93
2023/02/09 21:58:01;;;;;;;36.87;21.10;;;6.50;99.90;;;;;;4113550;28;20205;-94
2023/02/09 22:01:09;;;;;;;39.77;21.87;;;6.30;99.90;;;;;;4098309;28;20195;-94
2023/02/09 22:04:32;;;;;;;;;;;;;;;;;;;;;